Time;durP1;ratioP1;P1;durP2;ratioP2;P2;SDS_P1;SDS_P2;PMS_P1;PMS_P2;Temp;Humidity;BMP_temperature;BMP_pressure;BME280_temperature;BME280_humidity;BME280_pressure;Samples;Min_cycle;Max_cycle;Signal;HPM_P1;HPM_P2
2024/02/12 00:00:19;;;;;;;14.90;13.50;;;;;;;9.88;100.00;98203.39;110971;1257;22957;-82
2024/02/12 00:03:17;;;;;;;14.50;13.20;;;;;;;9.80;100.00;98198.56;111112;1258;21963;-82
2024/02/12 00:05:50;;;;;;;16.40;14.40;;;;;;;9.82;100.00;98205.15;111205;1257;22266;-83
2024/02/12 00:08:25;;;;;;;14.50;12.80;;;;;;;9.84;100.00;98207.46;111008;1258;22028;-84
2024/02/12 00:10:59;;;;;;;16.60;14.90;;;;;;;9.85;100.00;98207.56;110971;1258;22741;-83
2024/02/12 00:13:47;;;;;;;16.20;14.50;;;;;;;9.85;100.00;98207.08;111074;1258;21973;-83
2024/02/12 00:16:54;;;;;;;15.30;13.70;;;;;;;9.84;100.00;98214.28;110979;1258;23509;-83
2024/02/12 00:19:40;;;;;;;15.00;13.60;;;;;;;9.81;100.00;98216.20;111076;1258;21967;-84
2024/02/12 00:22:25;;;;;;;14.30;12.90;;;;;;;9.80;100.00;98219.54;111210;1258;22021;-82
2024/02/12 00:25:03;;;;;;;14.00;12.60;;;;;;;9.77;100.00;98221.16;111292;1258;22005;-83
2024/02/12 00:27:59;;;;;;;13.50;12.20;;;;;;;9.73;100.00;98223.85;111081;1258;23611;-83
2024/02/12 00:30:42;;;;;;;13.90;12.50;;;;;;;9.68;100.00;98224.38;111135;1258;21974;-83
2024/02/12 00:33:19;;;;;;;14.40;12.80;;;;;;;9.65;100.00;98228.40;111054;1258;21966;-82
2024/02/12 00:36:08;;;;;;;14.40;12.70;;;;;;;9.60;100.00;98227.49;111044;1258;21986;-81
2024/02/12 00:38:48;;;;;;;15.70;12.30;;;;;;;9.59;100.00;98228.96;110506;1265;22831;-83
2024/02/12 00:41:24;;;;;;;13.90;12.50;;;;;;;9.59;100.00;98229.33;110317;1265;24300;-84
2024/02/12 00:44:04;;;;;;;14.00;12.70;;;;;;;9.59;100.00;98232.61;110420;1265;22933;-83
2024/02/12 00:47:20;;;;;;;11.40;10.30;;;;;;;9.55;100.00;98234.29;110503;1265;22352;-82
2024/02/12 00:50:05;;;;;;;11.90;10.30;;;;;;;9.52;100.00;98235.14;110537;1265;21994;-84
2024/02/12 00:52:59;;;;;;;10.90;9.80;;;;;;;9.52;100.00;98236.55;110242;1264;21982;-81
2024/02/12 00:55:48;;;;;;;10.40;9.40;;;;;;;9.51;100.00;98236.80;110631;1265;21986;-82
2024/02/12 00:58:27;;;;;;;14.50;12.30;;;;;;;9.51;100.00;98238.34;110769;1258;22349;-82
2024/02/12 01:01:03;;;;;;;13.20;11.90;;;;;;;9.51;100.00;98238.20;111019;1258;22015;-81
2024/02/12 01:03:46;;;;;;;13.30;12.10;;;;;;;9.49;100.00;98237.44;111092;1257;23023;-82
2024/02/12 01:06:19;;;;;;;12.00;11.00;;;;;;;9.49;100.00;98240.05;110913;1258;21976;-84
2024/02/12 01:09:36;;;;;;;11.70;10.40;;;;;;;9.49;100.00;98240.91;111261;1258;23033;-84
2024/02/12 01:12:19;;;;;;;12.30;8.40;;;;;;;9.50;100.00;98241.93;111045;1258;22003;-84
2024/02/12 01:14:54;;;;;;;10.00;9.00;;;;;;;9.52;100.00;98245.61;111019;1258;23618;-84
2024/02/12 01:17:43;;;;;;;8.80;8.00;;;;;;;9.52;100.00;98245.41;111185;1258;21964;-83
2024/02/12 01:20:40;;;;;;;9.90;7.60;;;;;;;9.52;100.00;98242.66;111098;1258;22116;-83
2024/02/12 01:23:16;;;;;;;9.00;8.10;;;;;;;9.54;100.00;98245.81;111041;1258;23588;-82
2024/02/12 01:25:50;;;;;;;7.90;7.10;;;;;;;9.57;100.00;98243.16;111013;1258;22119;-82
2024/02/12 01:28:27;;;;;;;8.30;7.50;;;;;;;9.55;100.00;98243.33;111157;1258;23627;-83
2024/02/12 01:31:07;;;;;;;8.30;7.50;;;;;;;9.54;100.00;98242.14;111248;1258;21959;-82
2024/02/12 01:34:01;;;;;;;8.10;7.30;;;;;;;9.49;100.00;98242.86;111258;1258;22828;-81
2024/02/12 01:36:41;;;;;;;8.10;7.20;;;;;;;9.46;100.00;98246.13;111037;1258;23749;-81
2024/02/12 01:39:14;;;;;;;8.10;7.30;;;;;;;9.47;100.00;98248.53;111059;1258;22467;-84
2024/02/12 01:41:54;;;;;;;10.10;7.50;;;;;;;9.48;100.00;98249.13;110987;1258;21960;-83
2024/02/12 01:44:27;;;;;;;7.30;6.60;;;;;;;9.48;100.00;98248.95;110819;1258;21983;-83
2024/02/12 01:47:09;;;;;;;8.00;7.20;;;;;;;9.46;100.00;98250.82;111217;1258;22718;-81
2024/02/12 01:49:57;;;;;;;;;;;;;;;9.43;100.00;98249.36;110761;1263;22739;-83
2024/02/12 01:52:32;;;;;;;7.00;6.30;;;;;;;9.31;100.00;98253.06;110763;1263;21990;-79
2024/02/12 01:55:10;;;;;;;7.10;5.70;;;;;;;9.29;100.00;98251.24;110185;1262;21985;-82
2024/02/12 01:57:47;;;;;;;5.80;5.30;;;;;;;9.30;100.00;98251.58;109830;1269;21983;-82
2024/02/12 02:00:27;;;;;;;5.80;5.30;;;;;;;9.31;100.00;98251.14;110022;1268;23751;-81
2024/02/12 02:03:05;;;;;;;5.40;5.00;;;;;;;9.33;100.00;98252.91;109457;1273;21989;-82
2024/02/12 02:05:53;;;;;;;5.60;5.10;;;;;;;9.33;100.00;98252.17;109490;1273;23036;-81
2024/02/12 02:08:37;;;;;;;6.00;5.10;;;;;;;9.35;100.00;98252.92;108936;1274;22002;-83
2024/02/12 02:11:15;;;;;;;5.80;5.30;;;;;;;9.35;100.00;98256.07;109400;1274;22073;-82
2024/02/12 02:13:56;;;;;;;5.10;4.60;;;;;;;9.36;100.00;98251.70;109877;1257;23068;-83
2024/02/12 02:16:38;;;;;;;5.50;5.00;;;;;;;9.36;100.00;98256.18;110359;1268;23020;-82
2024/02/12 02:19:11;;;;;;;6.90;4.50;;;;;;;9.36;100.00;98256.39;110109;1268;21975;-82
2024/02/12 02:21:44;;;;;;;4.80;4.30;;;;;;;9.38;100.00;98257.77;109708;1269;23932;-85
2024/02/12 02:24:24;;;;;;;7.70;4.80;;;;;;;9.39;100.00;98258.79;109921;1269;22934;-81
2024/02/12 02:26:54;;;;;;;5.60;5.00;;;;;;;9.37;100.00;98259.27;110047;1264;21968;-82
2024/02/12 02:29:27;;;;;;;4.10;3.80;;;;;;;9.35;100.00;98256.58;110442;1264;22000;-83
2024/02/12 02:32:02;;;;;;;5.30;3.70;;;;;;;9.38;100.00;98259.56;110637;1264;21973;-81
2024/02/12 02:34:44;;;;;;;4.20;3.80;;;;;;;9.36;100.00;98261.20;110766;1253;22002;-81
2024/02/12 02:37:24;;;;;;;4.90;4.40;;;;;;;9.35;100.00;98260.43;110628;1264;21981;-83
2024/02/12 02:39:59;;;;;;;4.20;3.80;;;;;;;9.33;100.00;98258.83;110890;1258;23022;-80
2024/02/12 02:42:38;;;;;;;4.40;4.00;;;;;;;9.30;100.00;98261.61;111083;1258;22125;-79
2024/02/12 02:45:33;;;;;;;5.60;4.70;;;;;;;9.27;100.00;98262.33;111000;1258;22011;-80
2024/02/12 02:48:15;;;;;;;5.70;5.20;;;;;;;9.24;100.00;98262.56;110878;1258;21983;-80
2024/02/12 02:50:56;;;;;;;5.10;4.60;;;;;;;9.22;100.00;98264.04;111122;1258;23057;-80
2024/02/12 02:53:28;;;;;;;7.00;5.40;;;;;;;9.21;100.00;98262.73;111207;1258;21964;-81
2024/02/12 02:56:10;;;;;;;5.80;5.30;;;;;;;9.22;100.00;98267.02;111125;1258;21986;-81
2024/02/12 02:58:50;;;;;;;5.40;4.90;;;;;;;9.21;100.00;98266.40;111193;1248;23016;-82
2024/02/12 03:01:20;;;;;;;5.40;4.30;;;;;;;9.19;100.00;98269.13;111143;1258;23619;-82
2024/02/12 03:03:56;;;;;;;4.60;4.20;;;;;;;9.18;100.00;98274.86;111024;1258;21963;-81
2024/02/12 03:06:30;;;;;;;4.90;4.50;;;;;;;9.19;100.00;98274.11;111118;1258;21967;-80
2024/02/12 03:09:26;;;;;;;5.00;4.60;;;;;;;9.17;100.00;98277.19;111210;1258;21988;-81
2024/02/12 03:12:00;;;;;;;6.40;5.90;;;;;;;9.15;100.00;98278.18;111167;1257;21978;-81
2024/02/12 03:14:41;;;;;;;6.20;5.70;;;;;;;9.13;100.00;98280.61;111205;1258;21977;-80
2024/02/12 03:17:14;;;;;;;31.80;24.40;;;;;;;9.11;100.00;98284.70;110894;1258;21965;-83
2024/02/12 03:19:49;;;;;;;17.10;15.70;;;;;;;9.10;100.00;98284.59;111195;1258;21966;-83
2024/02/12 03:22:22;;;;;;;19.70;17.80;;;;;;;9.12;100.00;98284.86;111237;1257;23036;-81
2024/02/12 03:25:00;;;;;;;36.70;30.70;;;;;;;9.12;100.00;98290.59;111250;1258;21972;-82
2024/02/12 03:27:43;;;;;;;30.60;27.40;;;;;;;9.08;100.00;98294.25;111082;1258;22056;-82
2024/02/12 03:30:18;;;;;;;11.60;10.20;;;;;;;9.08;100.00;98297.42;111016;1258;21964;-81
2024/02/12 03:33:02;;;;;;;10.30;8.70;;;;;;;9.07;100.00;98301.98;111083;1258;21986;-81
2024/02/12 03:35:33;;;;;;;8.40;7.60;;;;;;;9.07;100.00;98301.14;111234;1258;23683;-87
2024/02/12 03:38:16;;;;;;;7.00;6.40;;;;;;;9.05;100.00;98299.38;111178;1258;21981;-85
2024/02/12 03:41:01;;;;;;;4.40;4.00;;;;;;;9.12;100.00;98307.05;110934;1257;22551;-80
2024/02/12 03:43:41;;;;;;;2.90;2.60;;;;;;;9.12;100.00;98309.14;111336;1254;24289;-82
2024/02/12 03:46:35;;;;;;;4.80;3.10;;;;;;;9.11;100.00;98307.95;111099;1258;21970;-83
2024/02/12 04:00:28;;;;;;;12.60;10.80;;;;;;;9.10;100.00;98319.31;110733;1254;21976;-82
2024/02/12 04:02:59;;;;;;;11.70;10.40;;;;;;;9.10;100.00;98324.73;110670;1263;22018;-82
2024/02/12 04:05:32;;;;;;;6.90;5.70;;;;;;;9.09;100.00;98327.73;110675;1263;21841;-82
2024/02/12 04:08:08;;;;;;;8.50;7.40;;;;;;;9.08;100.00;98330.55;110789;1263;22065;-82
2024/02/12 04:10:42;;;;;;;5.90;5.30;;;;;;;9.09;100.00;98330.80;110597;1263;21971;-82
2024/02/12 04:13:16;;;;;;;4.30;3.90;;;;;;;9.04;100.00;98322.83;110798;1263;21972;-84
2024/02/12 04:15:48;;;;;;;5.20;4.70;;;;;;;9.14;100.00;98332.09;110751;1262;21967;-82
2024/02/12 04:18:21;;;;;;;8.40;7.60;;;;;;;9.13;100.00;98335.79;110750;1258;21977;-83
2024/02/12 04:20:52;;;;;;;6.10;5.60;;;;;;;9.12;100.00;98335.36;111051;1258;23061;-79
2024/02/12 04:23:37;;;;;;;9.20;8.40;;;;;;;9.10;100.00;98340.80;111036;1258;22777;-82
2024/02/12 04:26:10;;;;;;;4.80;4.30;;;;;;;9.11;100.00;98341.64;111276;1258;23013;-82
2024/02/12 04:28:40;;;;;;;5.00;4.60;;;;;;;9.09;100.00;98344.35;110978;1258;21963;-80
2024/02/12 04:31:11;;;;;;;4.30;3.90;;;;;;;9.08;100.00;98343.59;110934;1258;23734;-82
2024/02/12 04:33:46;;;;;;;4.60;4.20;;;;;;;9.07;100.00;98344.34;111064;1258;22892;-82
2024/02/12 04:36:27;;;;;;;5.60;5.00;;;;;;;9.06;100.00;98346.30;111341;1258;21963;-82
2024/02/12 04:38:58;;;;;;;5.60;5.10;;;;;;;9.06;100.00;98347.14;111211;1258;21977;-82
2024/02/12 04:41:28;;;;;;;5.80;5.20;;;;;;;9.06;100.00;98346.45;111101;1258;21965;-82
2024/02/12 04:44:02;;;;;;;6.20;5.60;;;;;;;8.97;100.00;98334.23;110822;1262;22074;-81
2024/02/12 04:46:36;;;;;;;4.30;3.90;;;;;;;8.95;100.00;98339.73;110719;1263;23774;-82
2024/02/12 04:49:09;;;;;;;4.10;3.80;;;;;;;9.02;100.00;98356.25;110421;1263;22866;-81
2024/02/12 04:52:02;;;;;;;3.70;3.40;;;;;;;9.00;100.00;98358.66;110658;1263;21950;-82
2024/02/12 04:54:38;;;;;;;4.00;3.60;;;;;;;8.98;100.00;98359.30;110609;1263;22752;-82
2024/02/12 04:57:11;;;;;;;4.20;3.50;;;;;;;8.98;100.00;98363.44;110651;1263;22138;-84
2024/02/12 05:00:00;;;;;;;3.30;3.00;;;;;;;8.97;100.00;98365.59;110548;1263;21982;-82
2024/02/12 05:02:31;;;;;;;3.60;3.30;;;;;;;8.94;100.00;98364.04;110852;1258;21989;-80
2024/02/12 05:05:12;;;;;;;4.20;3.80;;;;;;;8.90;100.00;98372.25;110894;1258;22068;-81
2024/02/12 05:07:43;;;;;;;3.40;3.10;;;;;;;8.89;100.00;98374.39;111165;1258;21968;-83
2024/02/12 05:10:14;;;;;;;4.20;3.80;;;;;;;8.90;100.00;98376.63;110463;1265;22017;-81
2024/02/12 05:13:01;;;;;;;4.90;4.50;;;;;;;8.89;100.00;98381.83;110373;1265;21984;-80
2024/02/12 05:15:52;;;;;;;3.70;3.40;;;;;;;8.88;100.00;98386.27;110286;1265;21995;-82
2024/02/12 05:25:58;;;;;;;5.70;3.10;;;;;;;8.71;100.00;98384.85;110559;1265;24317;-82
2024/02/12 05:28:40;;;;;;;3.80;3.10;;;;;;;8.66;100.00;98387.11;110778;1259;23037;-81
2024/02/12 05:31:18;;;;;;;3.10;2.80;;;;;;;8.72;100.00;98394.05;110812;1265;21973;-82
2024/02/12 05:33:53;;;;;;;4.90;3.00;;;;;;;8.76;100.00;98396.52;110763;1264;21945;-84
2024/02/12 05:36:31;;;;;;;3.20;2.90;;;;;;;8.80;100.00;98401.34;110567;1251;23743;-80
2024/02/12 05:43:48;;;;;;;4.50;3.70;;;;;;;8.76;100.00;98411.16;110705;1264;22002;-81
2024/02/12 05:46:20;;;;;;;3.80;3.40;;;;;;;8.75;100.00;98412.05;110520;1264;22949;-83
2024/02/12 05:48:51;;;;;;;4.70;4.00;;;;;;;8.77;100.00;98415.23;110745;1258;22792;-82
2024/02/12 05:51:26;;;;;;;5.60;4.70;;;;;;;8.77;100.00;98420.60;110918;1258;22832;-83
2024/02/12 05:54:12;;;;;;;4.90;4.40;;;;;;;8.75;100.00;98419.86;110759;1258;21994;-82
2024/02/12 05:56:45;;;;;;;5.60;4.90;;;;;;;8.75;100.00;98424.54;111026;1258;21963;-82
2024/02/12 05:59:20;;;;;;;6.10;5.40;;;;;;;8.76;100.00;98423.97;110863;1258;22654;-81
2024/02/12 06:01:54;;;;;;;6.50;5.80;;;;;;;8.76;100.00;98426.41;111004;1258;21962;-82
2024/02/12 06:04:30;;;;;;;7.00;5.60;;;;;;;8.77;100.00;98429.98;110970;1258;21989;-83
2024/02/12 06:07:03;;;;;;;6.00;5.40;;;;;;;8.74;100.00;98434.45;110956;1258;23115;-81
2024/02/12 06:09:39;;;;;;;6.00;5.40;;;;;;;8.74;100.00;98437.27;111187;1258;21978;-82
2024/02/12 06:12:10;;;;;;;6.90;6.10;;;;;;;8.74;100.00;98442.30;111008;1258;24607;-81
2024/02/12 06:14:40;;;;;;;6.20;4.40;;;;;;;8.73;100.00;98442.38;110206;1265;22189;-83
2024/02/12 06:17:11;;;;;;;5.90;5.40;;;;;;;8.70;100.00;98445.48;110447;1265;22853;-82
2024/02/12 06:19:43;;;;;;;5.90;4.80;;;;;;;8.68;100.00;98448.40;110126;1269;21979;-80
2024/02/12 06:22:16;;;;;;;7.40;6.30;;;;;;;8.67;100.00;98450.20;110247;1268;22335;-79
2024/02/12 06:24:50;;;;;;;8.30;7.00;;;;;;;8.62;100.00;98451.67;110085;1269;21981;-81
2024/02/12 06:27:20;;;;;;;52.30;46.80;;;;;;;8.59;100.00;98452.91;110240;1269;23702;-81
2024/02/12 06:29:55;;;;;;;14.60;13.00;;;;;;;8.60;100.00;98456.31;110127;1269;22056;-81
2024/02/12 06:32:42;;;;;;;9.40;8.20;;;;;;;8.62;100.00;98460.54;110320;1265;23628;-79
2024/02/12 06:35:16;;;;;;;10.20;8.80;;;;;;;8.62;100.00;98465.58;110311;1265;21981;-82
2024/02/12 06:37:51;;;;;;;9.00;8.10;;;;;;;8.62;100.00;98469.39;110318;1262;21987;-81
2024/02/12 06:40:37;;;;;;;10.90;9.80;;;;;;;8.61;100.00;98473.04;110479;1265;21942;-82
2024/02/12 06:43:14;;;;;;;11.40;9.00;;;;;;;8.53;100.00;98468.50;110393;1265;22098;-83
2024/02/12 06:45:44;;;;;;;16.80;10.70;;;;;;;8.58;100.00;98479.09;111230;1258;21920;-84
2024/02/12 06:48:19;;;;;;;11.00;9.30;;;;;;;8.61;100.00;98486.60;110988;1258;21964;-84
2024/02/12 06:50:53;;;;;;;42.20;38.00;;;;;;;8.62;100.00;98484.80;111155;1258;21963;-82
2024/02/12 06:53:48;;;;;;;32.40;28.50;;;;;;;8.63;100.00;98485.26;110945;1258;22889;-83
2024/02/12 06:56:22;;;;;;;13.30;10.90;;;;;;;8.65;100.00;98486.72;111339;1258;22737;-83
2024/02/12 06:59:13;;;;;;;11.50;9.60;;;;;;;8.62;100.00;98489.13;110947;1258;21974;-82
2024/02/12 07:01:47;;;;;;;13.10;10.90;;;;;;;8.60;100.00;98492.55;111103;1258;21956;-86
2024/02/12 07:04:33;;;;;;;14.30;10.40;;;;;;;8.62;100.00;98498.12;111062;1258;21981;-84
2024/02/12 07:07:34;;;;;;;12.80;11.30;;;;;;;8.60;100.00;98500.49;111070;1258;21964;-84
2024/02/12 07:10:37;;;;;;;12.80;10.10;;;;;;;8.57;100.00;98507.81;111008;1258;21988;-85
2024/02/12 07:14:01;;;;;;;15.70;10.10;;;;;;;8.54;100.00;98514.02;110981;1258;21985;-82
2024/02/12 07:16:54;;;;;;;11.30;9.80;;;;;;;8.55;100.00;98518.14;111172;1258;23031;-84
2024/02/12 07:19:53;;;;;;;12.70;10.80;;;;;;;8.56;100.00;98519.13;110972;1260;21975;-82
2024/02/12 07:22:56;;;;;;;14.50;13.00;;;;;;;8.58;100.00;98524.54;110940;1260;23062;-84
2024/02/12 07:25:48;;;;;;;12.80;11.70;;;;;;;8.60;100.00;98526.52;110166;1266;22111;-84
2024/02/12 07:28:32;;;;;;;11.60;10.40;;;;;;;8.65;100.00;98527.08;110248;1265;22988;-81
2024/02/12 07:31:13;;;;;;;12.60;11.00;;;;;;;8.66;100.00;98526.16;110278;1268;21978;-82
2024/02/12 07:34:08;;;;;;;20.90;18.90;;;;;;;8.65;100.00;98532.30;109971;1268;22242;-82
2024/02/12 07:37:18;;;;;;;13.20;11.90;;;;;;;8.65;100.00;98533.16;110011;1268;21980;-82
2024/02/12 07:40:25;;;;;;;12.20;10.90;;;;;;;8.64;100.00;98536.19;110231;1268;22338;-83
2024/02/12 07:43:14;;;;;;;14.80;11.90;;;;;;;8.64;100.00;98537.38;110361;1268;21987;-83
2024/02/12 07:46:04;;;;;;;13.40;10.50;;;;;;;8.63;100.00;98539.03;110257;1268;21996;-82
2024/02/12 07:49:12;;;;;;;13.70;12.20;;;;;;;8.63;100.00;98543.36;110103;1267;23766;-84
2024/02/12 07:51:55;;;;;;;17.50;14.20;;;;;;;8.66;100.00;98543.88;109610;1272;22433;-84
2024/02/12 07:55:02;;;;;;;17.40;15.50;;;;;;;8.68;100.00;98546.87;109331;1276;22490;-83
2024/02/12 07:58:27;;;;;;;16.50;13.80;;;;;;;8.70;100.00;98548.13;109567;1271;21972;-84
2024/02/12 08:01:49;;;;;;;14.70;13.10;;;;;;;8.69;100.00;98552.35;109304;1276;23001;-84
2024/02/12 08:04:51;;;;;;;16.50;13.10;;;;;;;8.72;100.00;98559.48;108818;1282;22203;-84
2024/02/12 08:08:09;;;;;;;13.30;12.00;;;;;;;8.72;100.00;98566.40;109026;1282;22446;-85
2024/02/12 08:11:03;;;;;;;26.60;23.80;;;;;;;8.72;100.00;98568.83;109240;1277;23735;-86
2024/02/12 08:13:54;;;;;;;17.50;14.90;;;;;;;8.74;100.00;98576.33;109566;1273;22008;-84
2024/02/12 08:17:07;;;;;;;14.60;13.10;;;;;;;8.75;100.00;98580.98;109571;1273;21985;-85
2024/02/12 08:20:10;;;;;;;14.50;13.00;;;;;;;8.75;100.00;98582.52;109757;1271;23058;-82
2024/02/12 08:23:30;;;;;;;16.30;13.40;;;;;;;8.74;100.00;98586.42;110176;1268;23774;-84
2024/02/12 08:26:41;;;;;;;14.90;13.20;;;;;;;8.78;100.00;98589.14;109577;1272;21997;-85
2024/02/12 08:29:48;;;;;;;15.00;13.40;;;;;;;8.80;100.00;98592.98;109653;1272;24335;-84
2024/02/12 08:33:08;;;;;;;17.80;13.20;;;;;;;8.82;100.00;98596.33;109761;1272;24586;-85
2024/02/12 08:35:57;;;;;;;15.80;14.20;;;;;;;8.87;100.00;98596.26;109447;1272;22009;-85
2024/02/12 08:38:57;;;;;;;13.60;12.20;;;;;;;8.91;100.00;98598.41;109897;1266;23030;-83
2024/02/12 08:41:55;;;;;;;15.20;12.70;;;;;;;8.91;100.00;98603.42;109737;1272;22006;-82
2024/02/12 08:44:59;;;;;;;15.00;13.00;;;;;;;8.91;100.00;98605.88;109201;1274;22001;-85
2024/02/12 08:47:40;;;;;;;17.30;15.10;;;;;;;8.89;100.00;98611.73;109637;1274;23612;-86
2024/02/12 08:50:29;;;;;;;13.60;11.90;;;;;;;8.92;100.00;98612.40;109385;1276;21993;-85
2024/02/12 08:53:19;;;;;;;19.00;11.40;;;;;;;9.01;100.00;98621.62;109088;1276;21991;-84
2024/02/12 08:56:22;;;;;;;15.40;13.00;;;;;;;9.11;100.00;98623.76;109273;1276;23243;-83
2024/02/12 08:59:11;;;;;;;18.00;13.80;;;;;;;9.19;100.00;98628.67;109254;1271;22012;-84
2024/02/12 09:02:03;;;;;;;13.10;11.80;;;;;;;9.23;100.00;98629.53;109643;1265;21999;-85
2024/02/12 09:05:11;;;;;;;14.20;12.70;;;;;;;9.27;100.00;98637.79;110467;1265;22134;-85
2024/02/12 09:08:27;;;;;;;31.30;20.20;;;;;;;9.29;100.00;98639.21;110820;1261;21985;-84
2024/02/12 09:11:45;;;;;;;;;;;;;;;;;;;;;
2024/02/12 09:14:35;;;;;;;17.20;15.30;;;;;;;9.38;100.00;98643.39;111072;1261;21987;-85
2024/02/12 09:17:39;;;;;;;17.40;13.00;;;;;;;9.42;100.00;98650.58;110849;1261;21974;-85
2024/02/12 09:20:39;;;;;;;16.40;14.70;;;;;;;9.48;100.00;98651.64;111081;1261;21976;-85
2024/02/12 09:23:51;;;;;;;;;;;;;;;9.54;100.00;98653.86;110883;1261;24293;-86
2024/02/12 09:26:33;;;;;;;13.10;10.20;;;;;;;9.56;100.00;98656.00;109572;1273;23735;-88
2024/02/12 09:29:35;;;;;;;11.40;10.00;;;;;;;9.65;100.00;98660.33;109393;1275;23738;-88
2024/02/12 09:32:59;;;;;;;13.10;10.50;;;;;;;9.69;100.00;98662.50;109340;1280;22096;-88
2024/02/12 09:36:52;;;;;;;12.30;10.90;;;;;;;9.75;100.00;98667.02;109061;1283;21977;-87
2024/02/12 09:40:14;;;;;;;14.30;12.40;;;;;;;9.84;100.00;98670.29;109235;1281;21897;-88
2024/02/12 09:43:39;;;;;;;19.80;10.80;;;;;;;9.91;100.00;98676.10;108963;1290;22089;-90
2024/02/12 09:46:48;;;;;;;;;;;;;;;;;;;;;
2024/02/12 09:50:07;;;;;;;13.10;8.90;;;;;;;9.94;100.00;98689.45;109055;1286;22046;-89
2024/02/12 09:53:30;;;;;;;12.30;11.00;;;;;;;9.93;100.00;98686.25;109275;1286;22351;-89
2024/02/12 09:56:37;;;;;;;21.50;18.10;;;;;;;10.01;100.00;98695.45;108830;1290;22028;-89
2024/02/12 10:00:51;;;;;;;14.90;12.10;;;;;;;10.07;100.00;98693.39;108865;1293;22080;-88
2024/02/12 10:04:27;;;;;;;18.20;15.10;;;;;;;10.08;100.00;98700.77;108070;1301;22128;-90
2024/02/12 10:11:11;;;;;;;16.00;12.60;;;;;;;10.02;100.00;98696.81;107359;1306;23823;-89
2024/02/12 10:14:14;;;;;;;16.50;12.20;;;;;;;10.04;100.00;98708.88;107415;1297;22044;-83
2024/02/12 10:17:01;;;;;;;15.00;13.40;;;;;;;9.97;100.00;98711.20;107735;1291;22020;-85
2024/02/12 10:19:47;;;;;;;16.80;12.30;;;;;;;9.89;100.00;98712.86;107941;1295;22464;-84
2024/02/12 10:25:55;;;;;;;14.00;12.50;;;;;;;9.87;100.00;98713.54;108487;1288;22025;-84
2024/02/12 10:28:38;;;;;;;12.60;11.20;;;;;;;9.79;100.00;98714.67;108501;1288;22804;-84
2024/02/12 10:31:40;;;;;;;13.00;9.30;;;;;;;9.79;100.00;98718.71;108466;1287;22019;-85
2024/02/12 10:34:22;;;;;;;11.80;9.90;;;;;;;9.75;100.00;98710.96;108558;1287;21986;-84
2024/02/12 10:37:10;;;;;;;9.60;8.20;;;;;;;9.77;100.00;98714.98;108509;1282;22021;-84
2024/02/12 10:40:18;;;;;;;12.50;8.80;;;;;;;9.80;100.00;98712.75;109242;1269;22075;-84
2024/02/12 10:43:32;;;;;;;16.30;13.90;;;;;;;9.86;100.00;98714.79;110009;1269;21983;-84
2024/02/12 10:47:03;;;;;;;13.50;11.20;;;;;;;9.91;100.00;98717.46;109883;1262;23644;-84
2024/02/12 10:49:51;;;;;;;19.20;12.40;;;;;;;9.91;100.00;98715.91;111028;1260;22148;-85
2024/02/12 10:52:51;;;;;;;;;;;;;;;9.94;100.00;98716.23;110123;1266;22733;-84
2024/02/12 10:55:57;;;;;;;;;;;;;;;;;;;;;
2024/02/12 11:00:01;;;;;;;11.90;10.60;;;;;;;9.98;100.00;98709.91;109632;1274;22019;-84
2024/02/12 11:03:43;;;;;;;11.60;10.50;;;;;;;10.02;100.00;98711.95;108945;1282;22036;-85
2024/02/12 11:07:27;;;;;;;13.50;11.60;;;;;;;10.01;100.00;98715.28;108815;1282;22490;-85
2024/02/12 11:10:56;;;;;;;16.20;11.10;;;;;;;9.95;100.00;98719.44;108670;1284;21994;-84
2024/02/12 11:13:55;;;;;;;16.20;11.70;;;;;;;9.90;100.00;98718.05;108710;1286;22998;-84
2024/02/12 11:17:27;;;;;;;13.20;11.90;;;;;;;9.90;100.00;98725.51;108730;1279;22024;-84
2024/02/12 11:21:17;;;;;;;23.00;18.40;;;;;;;9.84;100.00;98732.45;109050;1279;22025;-85
2024/02/12 11:24:55;;;;;;;13.00;11.60;;;;;;;9.78;100.00;98732.48;109088;1279;22011;-84
2024/02/12 11:28:23;;;;;;;12.50;9.20;;;;;;;9.75;100.00;98734.55;109014;1279;21999;-84
2024/02/12 11:31:46;;;;;;;12.00;9.70;;;;;;;9.71;100.00;98733.08;109248;1274;22019;-84
2024/02/12 11:35:25;;;;;;;11.90;9.50;;;;;;;9.67;100.00;98735.73;109146;1279;22007;-85
2024/02/12 11:39:01;;;;;;;13.50;10.80;;;;;;;9.66;100.00;98741.02;109283;1279;22000;-83
2024/02/12 11:42:20;;;;;;;15.20;12.50;;;;;;;9.65;100.00;98742.29;109314;1280;22042;-85
2024/02/12 11:45:26;;;;;;;16.50;11.10;;;;;;;9.65;100.00;98741.91;109164;1281;23647;-84
2024/02/12 11:48:43;;;;;;;10.30;8.00;;;;;;;9.62;100.00;98739.70;109276;1280;21992;-85
2024/02/12 11:52:06;;;;;;;;;;;;;;;;;;;;;
2024/02/12 11:55:19;;;;;;;14.50;9.80;;;;;;;9.63;100.00;98756.52;109358;1277;22008;-84
2024/02/12 11:58:15;;;;;;;14.90;11.40;;;;;;;9.66;100.00;98760.79;109208;1278;22015;-84
2024/02/12 12:01:37;;;;;;;10.20;8.70;;;;;;;9.66;100.00;98764.79;109149;1280;22495;-85
2024/02/12 12:04:46;;;;;;;9.50;7.20;;;;;;;9.58;100.00;98768.75;109103;1276;21998;-86
2024/02/12 12:08:36;;;;;;;15.20;11.00;;;;;;;9.55;100.00;98774.00;109898;1265;22258;-85
2024/02/12 12:12:35;;;;;;;9.60;8.40;;;;;;;9.54;100.00;98775.39;108994;1286;23027;-86
2024/02/12 12:15:46;;;;;;;14.80;10.70;;;;;;;9.53;100.00;98772.34;108474;1286;22007;-85
2024/02/12 12:18:54;;;;;;;12.30;10.40;;;;;;;9.55;100.00;98777.80;108646;1288;22966;-86
2024/02/12 12:21:41;;;;;;;;;;;;;;;9.58;100.00;98778.65;108587;1288;23782;-85
2024/02/12 12:24:30;;;;;;;13.40;10.90;;;;;;;9.50;100.00;98780.66;108468;1288;22020;-86
2024/02/12 12:27:24;;;;;;;11.80;9.60;;;;;;;9.42;100.00;98771.96;108686;1288;22012;-84
2024/02/12 12:30:16;;;;;;;11.40;9.60;;;;;;;9.47;100.00;98789.36;108562;1288;25028;-84
2024/02/12 12:33:07;;;;;;;11.80;8.90;;;;;;;9.45;100.00;98781.53;108632;1288;23670;-84
2024/02/12 12:35:45;;;;;;;18.90;10.30;;;;;;;9.50;100.00;98783.99;108591;1288;22012;-84
2024/02/12 12:39:39;;;;;;;;;;;;;;;;;;;;;
2024/02/12 12:44:14;;;;;;;;;;;;;;;;;;;;;
2024/02/12 12:49:06;;;;;;;18.60;11.80;;;;;;;9.75;100.00;98799.02;108054;1295;22033;-89
2024/02/12 13:00:04;;;;;;;;;;;;;;;;;;;;;
2024/02/12 13:03:17;;;;;;;16.20;11.90;;;;;;;9.91;100.00;98815.24;107862;1298;22030;-87
2024/02/12 13:06:49;;;;;;;12.80;11.50;;;;;;;9.99;100.00;98819.32;107973;1295;22161;-87
2024/02/12 13:10:20;;;;;;;15.50;10.60;;;;;;;10.07;100.00;98825.80;108237;1296;24343;-90
2024/02/12 13:17:24;;;;;;;8.30;7.40;;;;;;;10.21;100.00;98826.36;108271;1294;22060;-90
2024/02/12 13:20:26;;;;;;;11.70;9.00;;;;;;;10.30;100.00;98832.78;108045;1294;22027;-84
2024/02/12 13:23:09;;;;;;;9.20;7.00;;;;;;;10.38;100.00;98842.59;107843;1289;23014;-85
2024/02/12 13:26:14;;;;;;;8.10;7.20;;;;;;;10.36;100.00;98847.05;108170;1291;22010;-85
2024/02/12 13:29:22;;;;;;;11.80;8.40;;;;;;;10.32;100.00;98847.77;108267;1291;23826;-85
2024/02/12 13:32:02;;;;;;;13.10;8.20;;;;;;;10.26;100.00;98852.16;108033;1291;22013;-85
2024/02/12 13:34:32;;;;;;;10.40;7.20;;;;;;;10.19;100.00;98855.31;108376;1288;22486;-85
2024/02/12 13:37:12;;;;;;;75.10;67.50;;;;;;;10.13;100.00;98866.13;109163;1283;22006;-85
2024/02/12 13:39:52;;;;;;;9.70;8.50;;;;;;;10.03;100.00;98867.23;108764;1283;22000;-85
2024/02/12 13:43:03;;;;;;;9.40;7.40;;;;;;;9.97;100.00;98872.10;108770;1283;22010;-86
2024/02/12 13:46:03;;;;;;;7.20;6.40;;;;;;;9.83;100.00;98863.15;108691;1283;22386;-84
2024/02/12 13:49:33;;;;;;;27.40;23.80;;;;;;;9.86;100.00;98877.43;108693;1278;22021;-86
2024/02/12 13:52:46;;;;;;;11.50;8.50;;;;;;;9.79;100.00;98882.86;108591;1284;23611;-85
2024/02/12 13:56:30;;;;;;;9.50;7.60;;;;;;;9.69;100.00;98885.51;109219;1278;22520;-86
2024/02/12 14:00:18;;;;;;;9.40;7.90;;;;;;;9.61;100.00;98889.80;109599;1274;21966;-84
2024/02/12 14:04:01;;;;;;;12.90;11.30;;;;;;;9.58;100.00;98894.70;109488;1274;22000;-86
2024/02/12 14:14:38;;;;;;;15.50;9.70;;;;;;;9.49;100.00;98905.07;107988;1296;22094;-86
2024/02/12 14:18:15;;;;;;;;;;;;;;;;;;;;;